Falcon — WBE7134 — position and weather

sailwx.info

Track history (hours):
 
Tides and Currents Weather Stations Pressure Air Temp Water Temp Dewpoint Dewpoint Depression Visibility Wind Speed Wind Dir Waves Ship Positions

Falcon

Owner: Allied Transportation Company, NORFOLK, VA. More information available from US FCC via Universal Licensing System and Coast Guard Vessel Documentation Center.

Last reported at 2016-May-29 18:33 UTC. Time now 2016-May-29 19:11 UTC.
Position N 40°47' W 073°60'.

Length 37 m; draft 6 m.

Type: Tug. MMSI: 366976720.

Date/timePositionNaut miles runAvg speedWind from/ knotsBaromVisibWave heightAir tempDewpointWater temp
2016-May-29 18:33N 40°47' W 073°60'8 8.1
2016-May-29 17:33N 40°39' W 074°03'8 7.8
2016-May-29 16:33N 40°32' W 074°01'7 6.7
2016-May-29 15:33N 40°28' W 073°54'4 4.0
2016-May-29 14:33N 40°24' W 073°54'7 6.8
2016-May-29 13:32N 40°17' W 073°54'7 6.8
2016-May-29 12:33N 40°10' W 073°55'7 6.8
2016-May-29 11:33N 40°03' W 073°56'7 6.7
2016-May-29 10:33N 39°57' W 073°56'7 6.8
2016-May-29 09:33N 39°50' W 073°57'7 6.8
2016-May-29 08:33N 39°43' W 073°59'7 6.9
2016-May-29 07:33N 39°37' W 074°03'7 6.7
2016-May-29 06:33N 39°31' W 074°07'7 6.8
2016-May-29 05:33N 39°25' W 074°11'7 6.9
2016-May-29 04:33N 39°19' W 074°15'7 6.9
2016-May-29 03:33N 39°13' W 074°20'7 7.0
2016-May-29 02:33N 39°07' W 074°24'7 7.0
2016-May-29 01:33N 39°00' W 074°28'7 7.0
2016-May-29 00:33N 38°54' W 074°31'7 6.9
2016-May-28 23:33N 38°47' W 074°33'7 7.0
2016-May-28 22:33N 38°40' W 074°35'7 6.9
2016-May-28 21:32N 38°34' W 074°37'15 7.2
2016-May-28 19:28N 38°20' W 074°44'54 6.9
2016-May-28 11:33N 37°32' W 075°17'8 6.6
2016-May-28 10:20N 37°25' W 075°23'8 6.8
2016-May-28 09:10N 37°18' W 075°27'7 6.7
2016-May-28 08:09N 37°11' W 075°29'4 6.5
2016-May-28 07:33N 37°08' W 075°28'8 6.5
2016-May-28 06:17N 36°60' W 075°25'  
2016-May-25 00:22N 27°06' W 079°57'810.1
2016-May-24 23:33N 26°58' W 079°58'8 8.4
2016-May-24 22:33N 26°50' W 079°60'4 4.2
2016-May-24 21:33N 26°46' W 080°02'1 0.0
2016-May-23 21:16N 26°46' W 080°03'3 3.6
2016-May-23 20:34N 26°47' W 080°00'5 5.3
2016-May-23 19:33N 26°53' W 079°60'7 7.4
2016-May-23 18:33N 27°00' W 080°00'282 8.5
2016-May-22 09:24N 31°42' W 080°14'7 8.8
2016-May-22 08:33N 31°49' W 080°10'17 8.4
2016-May-22 06:33N 32°01' W 079°56'8 8.1
2016-May-22 05:33N 32°06' W 079°50'  
Track history (hours):
 
Tides and Currents Weather Stations Pressure Air Temp Water Temp Dewpoint Dewpoint Depression Visibility Wind Speed Wind Dir Waves Ship Positions

Falcon

Owner: Allied Transportation Company, NORFOLK, VA. More information available from US FCC via Universal Licensing System and Coast Guard Vessel Documentation Center.

Last reported at 2016-May-29 18:33 UTC. Time now 2016-May-29 19:11 UTC.
Position N 40°47' W 073°60'.

Length 37 m; draft 6 m.

Type: Tug. MMSI: 366976720.

Date/timePositionNaut miles runAvg speedWind from/ knotsBaromVisibWave heightAir tempDewpointWater temp
2016-May-29 18:33N 40°47' W 073°60'8 8.1
2016-May-29 17:33N 40°39' W 074°03'8 7.8
2016-May-29 16:33N 40°32' W 074°01'7 6.7
2016-May-29 15:33N 40°28' W 073°54'4 4.0
2016-May-29 14:33N 40°24' W 073°54'7 6.8
2016-May-29 13:32N 40°17' W 073°54'7 6.8
2016-May-29 12:33N 40°10' W 073°55'7 6.8
2016-May-29 11:33N 40°03' W 073°56'7 6.7
2016-May-29 10:33N 39°57' W 073°56'7 6.8
2016-May-29 09:33N 39°50' W 073°57'7 6.8
2016-May-29 08:33N 39°43' W 073°59'7 6.9
2016-May-29 07:33N 39°37' W 074°03'7 6.7
2016-May-29 06:33N 39°31' W 074°07'7 6.8
2016-May-29 05:33N 39°25' W 074°11'7 6.9
2016-May-29 04:33N 39°19' W 074°15'7 6.9
2016-May-29 03:33N 39°13' W 074°20'7 7.0
2016-May-29 02:33N 39°07' W 074°24'7 7.0
2016-May-29 01:33N 39°00' W 074°28'7 7.0
2016-May-29 00:33N 38°54' W 074°31'7 6.9
2016-May-28 23:33N 38°47' W 074°33'7 7.0
2016-May-28 22:33N 38°40' W 074°35'7 6.9
2016-May-28 21:32N 38°34' W 074°37'15 7.2
2016-May-28 19:28N 38°20' W 074°44'54 6.9
2016-May-28 11:33N 37°32' W 075°17'8 6.6
2016-May-28 10:20N 37°25' W 075°23'8 6.8
2016-May-28 09:10N 37°18' W 075°27'7 6.7
2016-May-28 08:09N 37°11' W 075°29'4 6.5
2016-May-28 07:33N 37°08' W 075°28'8 6.5
2016-May-28 06:17N 36°60' W 075°25'  
2016-May-25 00:22N 27°06' W 079°57'810.1
2016-May-24 23:33N 26°58' W 079°58'8 8.4
2016-May-24 22:33N 26°50' W 079°60'4 4.2
2016-May-24 21:33N 26°46' W 080°02'1 0.0
2016-May-23 21:16N 26°46' W 080°03'3 3.6
2016-May-23 20:34N 26°47' W 080°00'5 5.3
2016-May-23 19:33N 26°53' W 079°60'7 7.4
2016-May-23 18:33N 27°00' W 080°00'282 8.5
2016-May-22 09:24N 31°42' W 080°14'7 8.8
2016-May-22 08:33N 31°49' W 080°10'17 8.4
2016-May-22 06:33N 32°01' W 079°56'8 8.1
2016-May-22 05:33N 32°06' W 079°50'  

Dump ship's entire track history